sensor_id;sensor_type;location;lat;lon;timestamp;temperature;humidity
64833;HTU21D;51290;45.060;38.948;2023-03-01T00:02:25;5.78;62.92
64833;HTU21D;51290;45.060;38.948;2023-03-01T00:04:51;5.77;62.90
64833;HTU21D;51290;45.060;38.948;2023-03-01T00:07:17;5.77;62.91
64833;HTU21D;51290;45.060;38.948;2023-03-01T00:09:43;5.78;62.90
64833;HTU21D;51290;45.060;38.948;2023-03-01T00:12:11;5.79;62.83
64833;HTU21D;51290;45.060;38.948;2023-03-01T00:14:37;5.79;62.82
64833;HTU21D;51290;45.060;38.948;2023-03-01T00:17:03;5.78;62.79
64833;HTU21D;51290;45.060;38.948;2023-03-01T00:19:29;5.76;62.79
64833;HTU21D;51290;45.060;38.948;2023-03-01T00:21:55;5.72;62.82
64833;HTU21D;51290;45.060;38.948;2023-03-01T00:24:21;5.75;62.86
64833;HTU21D;51290;45.060;38.948;2023-03-01T00:26:47;5.77;62.85
64833;HTU21D;51290;45.060;38.948;2023-03-01T00:29:13;5.78;62.83
64833;HTU21D;51290;45.060;38.948;2023-03-01T00:31:39;5.79;62.83
64833;HTU21D;51290;45.060;38.948;2023-03-01T00:34:05;5.83;62.81
64833;HTU21D;51290;45.060;38.948;2023-03-01T00:36:35;5.84;62.76
64833;HTU21D;51290;45.060;38.948;2023-03-01T00:39:03;5.84;62.67
64833;HTU21D;51290;45.060;38.948;2023-03-01T00:41:30;5.84;62.66
64833;HTU21D;51290;45.060;38.948;2023-03-01T00:43:56;5.85;62.66
64833;HTU21D;51290;45.060;38.948;2023-03-01T00:46:25;5.86;62.63
64833;HTU21D;51290;45.060;38.948;2023-03-01T00:48:51;5.87;62.60
64833;HTU21D;51290;45.060;38.948;2023-03-01T00:51:23;5.89;62.59
64833;HTU21D;51290;45.060;38.948;2023-03-01T00:53:57;5.87;62.57
64833;HTU21D;51290;45.060;38.948;2023-03-01T00:56:24;5.86;62.49
64833;HTU21D;51290;45.060;38.948;2023-03-01T00:58:50;5.85;62.50
64833;HTU21D;51290;45.060;38.948;2023-03-01T01:01:29;5.84;62.52
64833;HTU21D;51290;45.060;38.948;2023-03-01T01:04:00;5.83;62.48
64833;HTU21D;51290;45.060;38.948;2023-03-01T01:06:32;5.83;62.51
64833;HTU21D;51290;45.060;38.948;2023-03-01T01:08:58;5.84;62.51
64833;HTU21D;51290;45.060;38.948;2023-03-01T01:11:26;5.82;62.47
64833;HTU21D;51290;45.060;38.948;2023-03-01T01:13:53;5.81;62.49
64833;HTU21D;51290;45.060;38.948;2023-03-01T01:16:21;5.81;62.51
64833;HTU21D;51290;45.060;38.948;2023-03-01T01:18:48;5.82;62.50
64833;HTU21D;51290;45.060;38.948;2023-03-01T01:21:17;5.82;62.50
64833;HTU21D;51290;45.060;38.948;2023-03-01T01:23:44;5.82;62.53
64833;HTU21D;51290;45.060;38.948;2023-03-01T01:26:17;5.82;62.47
64833;HTU21D;51290;45.060;38.948;2023-03-01T01:28:43;5.82;62.47
64833;HTU21D;51290;45.060;38.948;2023-03-01T01:31:09;5.83;62.48
64833;HTU21D;51290;45.060;38.948;2023-03-01T01:33:35;5.84;62.49
64833;HTU21D;51290;45.060;38.948;2023-03-01T01:36:06;5.86;62.44
64833;HTU21D;51290;45.060;38.948;2023-03-01T01:38:34;5.87;62.39
64833;HTU21D;51290;45.060;38.948;2023-03-01T01:41:01;5.89;62.37
64833;HTU21D;51290;45.060;38.948;2023-03-01T01:43:29;5.89;62.36
64833;HTU21D;51290;45.060;38.948;2023-03-01T01:45:59;5.92;62.33
64833;HTU21D;51290;45.060;38.948;2023-03-01T01:48:49;5.93;62.27
64833;HTU21D;51290;45.060;38.948;2023-03-01T01:51:20;5.91;62.24
64833;HTU21D;51290;45.060;38.948;2023-03-01T01:53:54;5.90;62.21
64833;HTU21D;51290;45.060;38.948;2023-03-01T01:56:23;5.90;62.21
64833;HTU21D;51290;45.060;38.948;2023-03-01T01:58:50;5.87;62.21
64833;HTU21D;51290;45.060;38.948;2023-03-01T02:01:16;5.87;62.18
64833;HTU21D;51290;45.060;38.948;2023-03-01T02:03:44;5.87;62.18
64833;HTU21D;51290;45.060;38.948;2023-03-01T02:06:24;5.87;62.14
64833;HTU21D;51290;45.060;38.948;2023-03-01T02:08:59;5.86;62.08
64833;HTU21D;51290;45.060;38.948;2023-03-01T02:11:27;5.83;62.07
64833;HTU21D;51290;45.060;38.948;2023-03-01T02:13:54;5.82;62.08
64833;HTU21D;51290;45.060;38.948;2023-03-01T02:16:20;5.80;62.07
64833;HTU21D;51290;45.060;38.948;2023-03-01T02:18:47;5.77;62.08
64833;HTU21D;51290;45.060;38.948;2023-03-01T02:23:48;5.74;62.06
64833;HTU21D;51290;45.060;38.948;2023-03-01T02:28:52;5.66;62.00
64833;HTU21D;51290;45.060;38.948;2023-03-01T02:31:19;5.62;62.02
64833;HTU21D;51290;45.060;38.948;2023-03-01T02:34:06;5.52;61.99
64833;HTU21D;51290;45.060;38.948;2023-03-01T02:37:03;5.43;61.98
64833;HTU21D;51290;45.060;38.948;2023-03-01T02:39:34;5.33;62.07
64833;HTU21D;51290;45.060;38.948;2023-03-01T02:42:02;5.23;62.12
64833;HTU21D;51290;45.060;38.948;2023-03-01T02:44:29;5.17;62.18
64833;HTU21D;51290;45.060;38.948;2023-03-01T02:46:56;5.10;62.26
64833;HTU21D;51290;45.060;38.948;2023-03-01T02:49:28;5.04;62.33
64833;HTU21D;51290;45.060;38.948;2023-03-01T02:54:58;4.93;62.37
64833;HTU21D;51290;45.060;38.948;2023-03-01T02:57:27;4.88;62.44
64833;HTU21D;51290;45.060;38.948;2023-03-01T02:59:55;4.84;62.46
64833;HTU21D;51290;45.060;38.948;2023-03-01T03:02:29;4.80;62.49
64833;HTU21D;51290;45.060;38.948;2023-03-01T03:05:19;4.75;62.50
64833;HTU21D;51290;45.060;38.948;2023-03-01T03:07:47;4.73;62.52
64833;HTU21D;51290;45.060;38.948;2023-03-01T03:10:28;4.69;62.55
64833;HTU21D;51290;45.060;38.948;2023-03-01T03:13:00;4.67;62.58
64833;HTU21D;51290;45.060;38.948;2023-03-01T03:15:28;4.65;62.60
64833;HTU21D;51290;45.060;38.948;2023-03-01T03:17:55;4.64;62.63
64833;HTU21D;51290;45.060;38.948;2023-03-01T03:20:24;4.62;62.64
64833;HTU21D;51290;45.060;38.948;2023-03-01T03:22:53;4.61;62.63
64833;HTU21D;51290;45.060;38.948;2023-03-01T03:25:20;4.60;62.64
64833;HTU21D;51290;45.060;38.948;2023-03-01T03:27:48;4.59;62.63
64833;HTU21D;51290;45.060;38.948;2023-03-01T03:30:17;4.58;62.63
64833;HTU21D;51290;45.060;38.948;2023-03-01T03:32:45;4.56;62.66
64833;HTU21D;51290;45.060;38.948;2023-03-01T03:37:53;4.53;62.65
64833;HTU21D;51290;45.060;38.948;2023-03-01T03:40:37;4.52;62.68
64833;HTU21D;51290;45.060;38.948;2023-03-01T03:43:06;4.51;62.66
64833;HTU21D;51290;45.060;38.948;2023-03-01T03:45:32;4.50;62.66
64833;HTU21D;51290;45.060;38.948;2023-03-01T03:48:00;4.48;62.68
64833;HTU21D;51290;45.060;38.948;2023-03-01T03:50:26;4.47;62.70
64833;HTU21D;51290;45.060;38.948;2023-03-01T03:52:52;4.46;62.67
64833;HTU21D;51290;45.060;38.948;2023-03-01T03:55:18;4.44;62.70
64833;HTU21D;51290;45.060;38.948;2023-03-01T03:57:46;4.42;62.74
64833;HTU21D;51290;45.060;38.948;2023-03-01T04:00:21;4.41;62.75
64833;HTU21D;51290;45.060;38.948;2023-03-01T04:02:50;4.38;62.76
64833;HTU21D;51290;45.060;38.948;2023-03-01T04:05:18;4.37;62.78
64833;HTU21D;51290;45.060;38.948;2023-03-01T04:07:45;4.36;62.79
64833;HTU21D;51290;45.060;38.948;2023-03-01T04:10:16;4.35;62.77
64833;HTU21D;51290;45.060;38.948;2023-03-01T04:12:42;4.35;62.76
64833;HTU21D;51290;45.060;38.948;2023-03-01T04:15:10;4.33;62.78
64833;HTU21D;51290;45.060;38.948;2023-03-01T04:17:44;4.33;62.81
64833;HTU21D;51290;45.060;38.948;2023-03-01T04:20:12;4.33;62.83
64833;HTU21D;51290;45.060;38.948;2023-03-01T04:22:40;4.31;62.95
64833;HTU21D;51290;45.060;38.948;2023-03-01T04:25:06;4.29;62.94
64833;HTU21D;51290;45.060;38.948;2023-03-01T04:27:36;4.28;62.95
64833;HTU21D;51290;45.060;38.948;2023-03-01T04:30:03;4.28;62.95
64833;HTU21D;51290;45.060;38.948;2023-03-01T04:32:29;4.27;62.96
64833;HTU21D;51290;45.060;38.948;2023-03-01T04:34:55;4.27;62.98
64833;HTU21D;51290;45.060;38.948;2023-03-01T04:37:21;4.27;63.01
64833;HTU21D;51290;45.060;38.948;2023-03-01T04:39:47;4.28;63.02
64833;HTU21D;51290;45.060;38.948;2023-03-01T04:42:16;4.28;63.05
64833;HTU21D;51290;45.060;38.948;2023-03-01T04:44:45;4.29;63.07
64833;HTU21D;51290;45.060;38.948;2023-03-01T04:47:12;4.30;63.10
64833;HTU21D;51290;45.060;38.948;2023-03-01T04:49:38;4.35;63.09
64833;HTU21D;51290;45.060;38.948;2023-03-01T04:52:04;4.36;63.07
64833;HTU21D;51290;45.060;38.948;2023-03-01T04:54:35;4.38;63.06
64833;HTU21D;51290;45.060;38.948;2023-03-01T04:57:02;4.41;63.06
64833;HTU21D;51290;45.060;38.948;2023-03-01T04:59:29;4.42;63.08
64833;HTU21D;51290;45.060;38.948;2023-03-01T05:01:56;4.45;63.08
64833;HTU21D;51290;45.060;38.948;2023-03-01T05:04:23;4.48;63.08
64833;HTU21D;51290;45.060;38.948;2023-03-01T05:06:49;4.52;63.08
64833;HTU21D;51290;45.060;38.948;2023-03-01T05:09:15;4.56;63.07
64833;HTU21D;51290;45.060;38.948;2023-03-01T05:11:41;4.61;63.08
64833;HTU21D;51290;45.060;38.948;2023-03-01T05:14:08;4.66;63.07
64833;HTU21D;51290;45.060;38.948;2023-03-01T05:16:35;4.73;63.02
64833;HTU21D;51290;45.060;38.948;2023-03-01T05:19:03;4.76;62.98
64833;HTU21D;51290;45.060;38.948;2023-03-01T05:21:42;4.81;62.92
64833;HTU21D;51290;45.060;38.948;2023-03-01T05:24:27;4.86;62.93
64833;HTU21D;51290;45.060;38.948;2023-03-01T05:26:53;4.91;62.92
64833;HTU21D;51290;45.060;38.948;2023-03-01T05:29:23;4.96;62.97
64833;HTU21D;51290;45.060;38.948;2023-03-01T05:31:53;5.02;62.95
64833;HTU21D;51290;45.060;38.948;2023-03-01T05:34:27;5.06;62.99
64833;HTU21D;51290;45.060;38.948;2023-03-01T05:36:54;5.11;63.00
64833;HTU21D;51290;45.060;38.948;2023-03-01T05:39:21;5.18;62.95
64833;HTU21D;51290;45.060;38.948;2023-03-01T05:41:51;5.23;62.91
64833;HTU21D;51290;45.060;38.948;2023-03-01T05:44:17;5.27;62.92
64833;HTU21D;51290;45.060;38.948;2023-03-01T05:46:44;5.31;62.86
64833;HTU21D;51290;45.060;38.948;2023-03-01T05:49:11;5.36;62.84
64833;HTU21D;51290;45.060;38.948;2023-03-01T05:51:39;5.40;62.89
64833;HTU21D;51290;45.060;38.948;2023-03-01T05:54:05;5.45;62.86
64833;HTU21D;51290;45.060;38.948;2023-03-01T05:56:35;5.51;62.89
64833;HTU21D;51290;45.060;38.948;2023-03-01T05:59:02;5.60;62.87
64833;HTU21D;51290;45.060;38.948;2023-03-01T06:01:29;5.67;62.73
64833;HTU21D;51290;45.060;38.948;2023-03-01T06:03:55;5.72;62.66
64833;HTU21D;51290;45.060;38.948;2023-03-01T06:06:22;5.79;62.61
64833;HTU21D;51290;45.060;38.948;2023-03-01T06:08:50;5.85;62.60
64833;HTU21D;51290;45.060;38.948;2023-03-01T06:11:16;5.94;62.58
64833;HTU21D;51290;45.060;38.948;2023-03-01T06:13:43;6.01;62.55
64833;HTU21D;51290;45.060;38.948;2023-03-01T06:16:09;6.09;62.57
64833;HTU21D;51290;45.060;38.948;2023-03-01T06:18:36;6.17;62.46
64833;HTU21D;51290;45.060;38.948;2023-03-01T06:21:03;6.23;62.42
64833;HTU21D;51290;45.060;38.948;2023-03-01T06:23:29;6.30;62.39
64833;HTU21D;51290;45.060;38.948;2023-03-01T06:25:55;6.35;62.37
64833;HTU21D;51290;45.060;38.948;2023-03-01T06:28:21;6.40;62.37
64833;HTU21D;51290;45.060;38.948;2023-03-01T06:30:49;6.48;62.37
64833;HTU21D;51290;45.060;38.948;2023-03-01T06:33:15;6.55;62.34
64833;HTU21D;51290;45.060;38.948;2023-03-01T06:35:41;6.63;62.17
64833;HTU21D;51290;45.060;38.948;2023-03-01T06:38:07;6.68;62.16
64833;HTU21D;51290;45.060;38.948;2023-03-01T06:40:33;6.74;62.20
64833;HTU21D;51290;45.060;38.948;2023-03-01T06:43:01;6.83;62.22
64833;HTU21D;51290;45.060;38.948;2023-03-01T06:45:27;6.94;62.16
64833;HTU21D;51290;45.060;38.948;2023-03-01T06:48:01;7.05;62.12
64833;HTU21D;51290;45.060;38.948;2023-03-01T06:50:28;7.11;61.82
64833;HTU21D;51290;45.060;38.948;2023-03-01T06:52:58;7.17;61.72
64833;HTU21D;51290;45.060;38.948;2023-03-01T06:55:24;7.20;61.63
64833;HTU21D;51290;45.060;38.948;2023-03-01T06:57:55;7.19;61.50
64833;HTU21D;51290;45.060;38.948;2023-03-01T07:00:22;7.17;61.47
64833;HTU21D;51290;45.060;38.948;2023-03-01T07:02:48;7.17;61.53
64833;HTU21D;51290;45.060;38.948;2023-03-01T07:05:14;7.17;61.57
64833;HTU21D;51290;45.060;38.948;2023-03-01T07:07:40;7.16;61.64
64833;HTU21D;51290;45.060;38.948;2023-03-01T07:10:06;7.12;61.69
64833;HTU21D;51290;45.060;38.948;2023-03-01T07:12:33;7.13;61.73
64833;HTU21D;51290;45.060;38.948;2023-03-01T07:14:58;7.16;61.74
64833;HTU21D;51290;45.060;38.948;2023-03-01T07:17:24;7.22;61.77
64833;HTU21D;51290;45.060;38.948;2023-03-01T07:19:50;7.29;61.77
64833;HTU21D;51290;45.060;38.948;2023-03-01T07:22:17;7.38;61.75
64833;HTU21D;51290;45.060;38.948;2023-03-01T07:24:43;7.49;61.63
64833;HTU21D;51290;45.060;38.948;2023-03-01T07:27:09;7.59;61.48
64833;HTU21D;51290;45.060;38.948;2023-03-01T07:29:35;7.73;61.40
64833;HTU21D;51290;45.060;38.948;2023-03-01T07:32:05;7.85;61.17
64833;HTU21D;51290;45.060;38.948;2023-03-01T07:34:31;7.90;61.11
64833;HTU21D;51290;45.060;38.948;2023-03-01T07:36:57;7.98;61.03
64833;HTU21D;51290;45.060;38.948;2023-03-01T07:39:23;8.05;60.96
64833;HTU21D;51290;45.060;38.948;2023-03-01T07:41:50;8.11;60.83
64833;HTU21D;51290;45.060;38.948;2023-03-01T07:44:20;8.19;60.78
64833;HTU21D;51290;45.060;38.948;2023-03-01T07:46:46;8.27;60.62
64833;HTU21D;51290;45.060;38.948;2023-03-01T07:49:12;8.29;60.35
64833;HTU21D;51290;45.060;38.948;2023-03-01T07:51:38;8.26;60.31
64833;HTU21D;51290;45.060;38.948;2023-03-01T07:54:05;8.28;60.54
64833;HTU21D;51290;45.060;38.948;2023-03-01T07:56:31;8.34;60.63
64833;HTU21D;51290;45.060;38.948;2023-03-01T07:58:59;8.39;60.47
64833;HTU21D;51290;45.060;38.948;2023-03-01T08:01:25;8.45;60.50
64833;HTU21D;51290;45.060;38.948;2023-03-01T08:03:51;8.50;60.43
64833;HTU21D;51290;45.060;38.948;2023-03-01T08:06:17;8.55;60.23
64833;HTU21D;51290;45.060;38.948;2023-03-01T08:08:44;8.57;60.38
64833;HTU21D;51290;45.060;38.948;2023-03-01T08:11:12;8.65;60.36
64833;HTU21D;51290;45.060;38.948;2023-03-01T08:13:39;8.70;60.24
64833;HTU21D;51290;45.060;38.948;2023-03-01T08:16:13;8.72;60.02
64833;HTU21D;51290;45.060;38.948;2023-03-01T08:18:40;8.74;59.91
64833;HTU21D;51290;45.060;38.948;2023-03-01T08:21:12;8.76;59.76
64833;HTU21D;51290;45.060;38.948;2023-03-01T08:23:39;8.80;59.77
64833;HTU21D;51290;45.060;38.948;2023-03-01T08:26:08;8.85;59.80
64833;HTU21D;51290;45.060;38.948;2023-03-01T08:28:34;8.91;59.73
64833;HTU21D;51290;45.060;38.948;2023-03-01T08:31:01;8.97;59.71
64833;HTU21D;51290;45.060;38.948;2023-03-01T08:33:27;9.07;59.67
64833;HTU21D;51290;45.060;38.948;2023-03-01T08:36:02;9.18;59.66
64833;HTU21D;51290;45.060;38.948;2023-03-01T08:38:28;9.31;59.52
64833;HTU21D;51290;45.060;38.948;2023-03-01T08:40:54;9.44;59.38
64833;HTU21D;51290;45.060;38.948;2023-03-01T08:43:20;9.48;58.94
64833;HTU21D;51290;45.060;38.948;2023-03-01T08:45:48;9.48;58.75
64833;HTU21D;51290;45.060;38.948;2023-03-01T08:48:14;9.46;58.81
64833;HTU21D;51290;45.060;38.948;2023-03-01T08:50:40;9.44;58.64
64833;HTU21D;51290;45.060;38.948;2023-03-01T08:53:06;9.39;58.51
64833;HTU21D;51290;45.060;38.948;2023-03-01T08:55:32;9.37;58.79
64833;HTU21D;51290;45.060;38.948;2023-03-01T08:57:58;9.40;58.92
64833;HTU21D;51290;45.060;38.948;2023-03-01T09:00:25;9.48;58.89
64833;HTU21D;51290;45.060;38.948;2023-03-01T09:02:51;9.55;58.84
64833;HTU21D;51290;45.060;38.948;2023-03-01T09:05:17;9.63;58.70
64833;HTU21D;51290;45.060;38.948;2023-03-01T09:07:43;9.66;58.40
64833;HTU21D;51290;45.060;38.948;2023-03-01T09:10:09;9.68;58.45
64833;HTU21D;51290;45.060;38.948;2023-03-01T09:12:38;9.72;58.34
64833;HTU21D;51290;45.060;38.948;2023-03-01T09:15:05;9.76;58.29
64833;HTU21D;51290;45.060;38.948;2023-03-01T09:17:31;9.78;58.16
64833;HTU21D;51290;45.060;38.948;2023-03-01T09:19:57;9.79;58.15
64833;HTU21D;51290;45.060;38.948;2023-03-01T09:22:23;9.80;57.96
64833;HTU21D;51290;45.060;38.948;2023-03-01T09:24:49;9.80;58.01
64833;HTU21D;51290;45.060;38.948;2023-03-01T09:27:15;9.78;57.53
64833;HTU21D;51290;45.060;38.948;2023-03-01T09:29:44;9.71;57.45
64833;HTU21D;51290;45.060;38.948;2023-03-01T09:32:10;9.66;57.70
64833;HTU21D;51290;45.060;38.948;2023-03-01T09:34:36;9.66;57.88
64833;HTU21D;51290;45.060;38.948;2023-03-01T09:37:20;9.69;57.80
64833;HTU21D;51290;45.060;38.948;2023-03-01T09:39:46;9.72;57.80
64833;HTU21D;51290;45.060;38.948;2023-03-01T09:42:13;9.78;57.74
64833;HTU21D;51290;45.060;38.948;2023-03-01T09:44:53;9.84;57.61
64833;HTU21D;51290;45.060;38.948;2023-03-01T09:47:23;9.83;57.00
64833;HTU21D;51290;45.060;38.948;2023-03-01T09:50:19;9.77;57.14
64833;HTU21D;51290;45.060;38.948;2023-03-01T09:52:47;9.77;57.23
64833;HTU21D;51290;45.060;38.948;2023-03-01T09:55:34;9.77;57.15
64833;HTU21D;51290;45.060;38.948;2023-03-01T10:00:46;9.75;57.32
64833;HTU21D;51290;45.060;38.948;2023-03-01T10:06:14;9.84;57.32
64833;HTU21D;51290;45.060;38.948;2023-03-01T10:08:56;9.89;57.05
64833;HTU21D;51290;45.060;38.948;2023-03-01T10:17:08;9.75;57.01
64833;HTU21D;51290;45.060;38.948;2023-03-01T10:19:40;9.76;57.22
64833;HTU21D;51290;45.060;38.948;2023-03-01T10:22:19;9.79;57.03
64833;HTU21D;51290;45.060;38.948;2023-03-01T10:24:47;9.81;56.84
64833;HTU21D;51290;45.060;38.948;2023-03-01T10:32:26;9.71;56.69
64833;HTU21D;51290;45.060;38.948;2023-03-01T10:34:52;9.64;56.84
64833;HTU21D;51290;45.060;38.948;2023-03-01T10:37:20;9.56;56.96
64833;HTU21D;51290;45.060;38.948;2023-03-01T10:40:05;9.52;56.90
64833;HTU21D;51290;45.060;38.948;2023-03-01T10:42:39;9.47;56.81
64833;HTU21D;51290;45.060;38.948;2023-03-01T10:45:36;9.46;57.00
64833;HTU21D;51290;45.060;38.948;2023-03-01T10:50:38;9.52;57.00
64833;HTU21D;51290;45.060;38.948;2023-03-01T10:55:44;9.75;57.03
64833;HTU21D;51290;45.060;38.948;2023-03-01T10:58:21;9.85;56.64
64833;HTU21D;51290;45.060;38.948;2023-03-01T11:00:53;9.93;56.39
64833;HTU21D;51290;45.060;38.948;2023-03-01T11:03:25;9.93;56.19
64833;HTU21D;51290;45.060;38.948;2023-03-01T11:06:01;9.93;56.27
64833;HTU21D;51290;45.060;38.948;2023-03-01T11:11:17;9.91;55.95
64833;HTU21D;51290;45.060;38.948;2023-03-01T11:16:30;9.79;56.06
64833;HTU21D;51290;45.060;38.948;2023-03-01T11:21:26;9.69;56.09
64833;HTU21D;51290;45.060;38.948;2023-03-01T11:23:54;9.70;56.23
64833;HTU21D;51290;45.060;38.948;2023-03-01T11:26:21;9.76;56.10
64833;HTU21D;51290;45.060;38.948;2023-03-01T11:28:51;9.79;56.03
64833;HTU21D;51290;45.060;38.948;2023-03-01T11:31:19;9.78;55.96
64833;HTU21D;51290;45.060;38.948;2023-03-01T11:34:12;9.74;55.94
64833;HTU21D;51290;45.060;38.948;2023-03-01T11:36:52;9.70;56.04
64833;HTU21D;51290;45.060;38.948;2023-03-01T11:39:51;9.66;56.03
64833;HTU21D;51290;45.060;38.948;2023-03-01T11:42:34;9.66;56.05
64833;HTU21D;51290;45.060;38.948;2023-03-01T11:45:08;9.65;56.04
64833;HTU21D;51290;45.060;38.948;2023-03-01T11:50:39;9.78;56.10
64833;HTU21D;51290;45.060;38.948;2023-03-01T11:53:13;9.85;55.87
64833;HTU21D;51290;45.060;38.948;2023-03-01T12:15:11;9.83;55.32
64833;HTU21D;51290;45.060;38.948;2023-03-01T12:17:57;9.82;55.10
64833;HTU21D;51290;45.060;38.948;2023-03-01T12:28:39;9.89;54.60
64833;HTU21D;51290;45.060;38.948;2023-03-01T12:37:32;9.74;54.60
64833;HTU21D;51290;45.060;38.948;2023-03-01T12:49:14;9.37;54.83
64833;HTU21D;51290;45.060;38.948;2023-03-01T12:51:50;9.37;54.81
64833;HTU21D;51290;45.060;38.948;2023-03-01T12:54:46;9.36;54.67
64833;HTU21D;51290;45.060;38.948;2023-03-01T12:57:29;9.33;54.57
64833;HTU21D;51290;45.060;38.948;2023-03-01T13:02:58;9.16;54.61
64833;HTU21D;51290;45.060;38.948;2023-03-01T13:10:56;9.03;54.55
64833;HTU21D;51290;45.060;38.948;2023-03-01T13:13:26;8.95;54.47
64833;HTU21D;51290;45.060;38.948;2023-03-01T13:19:19;8.72;54.54
64833;HTU21D;51290;45.060;38.948;2023-03-01T13:21:47;8.67;54.63
64833;HTU21D;51290;45.060;38.948;2023-03-01T13:24:46;8.61;54.41
64833;HTU21D;51290;45.060;38.948;2023-03-01T13:29:45;8.46;54.49
64833;HTU21D;51290;45.060;38.948;2023-03-01T13:32:28;8.37;54.42
64833;HTU21D;51290;45.060;38.948;2023-03-01T13:34:57;8.30;54.46
64833;HTU21D;51290;45.060;38.948;2023-03-01T13:37:28;8.23;54.53
64833;HTU21D;51290;45.060;38.948;2023-03-01T13:40:02;8.17;54.62
64833;HTU21D;51290;45.060;38.948;2023-03-01T13:42:37;8.13;54.66
64833;HTU21D;51290;45.060;38.948;2023-03-01T13:45:49;8.09;54.63
64833;HTU21D;51290;45.060;38.948;2023-03-01T13:48:02;8.08;54.72
64833;HTU21D;51290;45.060;38.948;2023-03-01T13:50:38;8.08;54.73
64833;HTU21D;51290;45.060;38.948;2023-03-01T13:53:14;8.09;54.52
64833;HTU21D;51290;45.060;38.948;2023-03-01T13:55:45;8.11;54.36
64833;HTU21D;51290;45.060;38.948;2023-03-01T13:58:20;8.11;54.39
64833;HTU21D;51290;45.060;38.948;2023-03-01T14:00:47;8.12;54.36
64833;HTU21D;51290;45.060;38.948;2023-03-01T14:03:18;8.08;54.29
64833;HTU21D;51290;45.060;38.948;2023-03-01T14:08:26;8.02;54.23
64833;HTU21D;51290;45.060;38.948;2023-03-01T14:19:17;7.69;54.17
64833;HTU21D;51290;45.060;38.948;2023-03-01T14:21:46;7.60;54.33
64833;HTU21D;51290;45.060;38.948;2023-03-01T14:24:21;7.54;54.18
64833;HTU21D;51290;45.060;38.948;2023-03-01T14:26:49;7.45;54.19
64833;HTU21D;51290;45.060;38.948;2023-03-01T14:29:34;7.35;54.25
64833;HTU21D;51290;45.060;38.948;2023-03-01T14:32:25;7.28;54.31
64833;HTU21D;51290;45.060;38.948;2023-03-01T14:34:52;7.19;54.23
64833;HTU21D;51290;45.060;38.948;2023-03-01T14:37:28;7.10;54.06
64833;HTU21D;51290;45.060;38.948;2023-03-01T14:39:55;7.00;53.94
64833;HTU21D;51290;45.060;38.948;2023-03-01T14:42:24;6.91;54.03
64833;HTU21D;51290;45.060;38.948;2023-03-01T14:44:53;6.83;54.07
64833;HTU21D;51290;45.060;38.948;2023-03-01T14:47:31;6.74;54.06
64833;HTU21D;51290;45.060;38.948;2023-03-01T14:50:15;6.65;54.13
64833;HTU21D;51290;45.060;38.948;2023-03-01T14:52:47;6.58;54.26
64833;HTU21D;51290;45.060;38.948;2023-03-01T14:55:25;6.53;54.33
64833;HTU21D;51290;45.060;38.948;2023-03-01T14:57:52;6.46;54.39
64833;HTU21D;51290;45.060;38.948;2023-03-01T15:00:29;6.41;54.39
64833;HTU21D;51290;45.060;38.948;2023-03-01T15:03:02;6.35;54.39
64833;HTU21D;51290;45.060;38.948;2023-03-01T15:05:33;6.31;54.38
64833;HTU21D;51290;45.060;38.948;2023-03-01T15:08:01;6.26;54.39
64833;HTU21D;51290;45.060;38.948;2023-03-01T15:10:30;6.20;54.40
64833;HTU21D;51290;45.060;38.948;2023-03-01T15:13:22;6.11;54.36
64833;HTU21D;51290;45.060;38.948;2023-03-01T15:15:53;6.07;54.45
64833;HTU21D;51290;45.060;38.948;2023-03-01T15:18:28;6.00;54.48
64833;HTU21D;51290;45.060;38.948;2023-03-01T15:20:56;5.94;54.50
64833;HTU21D;51290;45.060;38.948;2023-03-01T15:23:30;5.86;54.52
64833;HTU21D;51290;45.060;38.948;2023-03-01T15:25:57;5.81;54.54
64833;HTU21D;51290;45.060;38.948;2023-03-01T15:28:28;5.75;54.58
64833;HTU21D;51290;45.060;38.948;2023-03-01T15:31:22;5.67;54.62
64833;HTU21D;51290;45.060;38.948;2023-03-01T15:33:49;5.60;54.67
64833;HTU21D;51290;45.060;38.948;2023-03-01T15:36:36;5.54;54.68
64833;HTU21D;51290;45.060;38.948;2023-03-01T15:39:03;5.47;54.73
64833;HTU21D;51290;45.060;38.948;2023-03-01T15:41:48;5.43;54.77
64833;HTU21D;51290;45.060;38.948;2023-03-01T15:44:16;5.38;54.82
64833;HTU21D;51290;45.060;38.948;2023-03-01T15:46:47;5.34;54.87
64833;HTU21D;51290;45.060;38.948;2023-03-01T15:49:40;5.32;54.90
64833;HTU21D;51290;45.060;38.948;2023-03-01T15:52:21;5.28;54.90
64833;HTU21D;51290;45.060;38.948;2023-03-01T15:54:59;5.24;54.91
64833;HTU21D;51290;45.060;38.948;2023-03-01T15:57:26;5.21;54.93
64833;HTU21D;51290;45.060;38.948;2023-03-01T15:59:52;5.18;54.97
64833;HTU21D;51290;45.060;38.948;2023-03-01T16:02:19;5.13;54.97
64833;HTU21D;51290;45.060;38.948;2023-03-01T16:04:47;5.10;54.99
64833;HTU21D;51290;45.060;38.948;2023-03-01T16:07:15;5.06;54.98
64833;HTU21D;51290;45.060;38.948;2023-03-01T16:09:41;5.02;55.00
64833;HTU21D;51290;45.060;38.948;2023-03-01T16:12:16;4.97;55.04
64833;HTU21D;51290;45.060;38.948;2023-03-01T16:14:42;4.95;55.10
64833;HTU21D;51290;45.060;38.948;2023-03-01T16:17:08;4.93;55.15
64833;HTU21D;51290;45.060;38.948;2023-03-01T16:19:37;4.91;55.16
64833;HTU21D;51290;45.060;38.948;2023-03-01T16:22:03;4.90;55.15
64833;HTU21D;51290;45.060;38.948;2023-03-01T16:24:34;4.87;55.15
64833;HTU21D;51290;45.060;38.948;2023-03-01T16:27:09;4.83;55.13
64833;HTU21D;51290;45.060;38.948;2023-03-01T16:29:35;4.79;55.14
64833;HTU21D;51290;45.060;38.948;2023-03-01T16:32:02;4.75;55.17
64833;HTU21D;51290;45.060;38.948;2023-03-01T16:34:28;4.71;55.19
64833;HTU21D;51290;45.060;38.948;2023-03-01T16:36:54;4.67;55.16
64833;HTU21D;51290;45.060;38.948;2023-03-01T16:39:20;4.63;55.17
64833;HTU21D;51290;45.060;38.948;2023-03-01T16:41:46;4.60;55.20
64833;HTU21D;51290;45.060;38.948;2023-03-01T16:44:12;4.54;55.20
64833;HTU21D;51290;45.060;38.948;2023-03-01T16:46:38;4.48;55.23
64833;HTU21D;51290;45.060;38.948;2023-03-01T16:49:07;4.44;55.23
64833;HTU21D;51290;45.060;38.948;2023-03-01T16:51:33;4.38;55.26
64833;HTU21D;51290;45.060;38.948;2023-03-01T16:54:01;4.33;55.26
64833;HTU21D;51290;45.060;38.948;2023-03-01T16:56:30;4.28;55.27
64833;HTU21D;51290;45.060;38.948;2023-03-01T16:58:58;4.20;55.29
64833;HTU21D;51290;45.060;38.948;2023-03-01T17:01:24;4.15;55.33
64833;HTU21D;51290;45.060;38.948;2023-03-01T17:03:51;4.09;55.36
64833;HTU21D;51290;45.060;38.948;2023-03-01T17:06:20;4.03;55.38
64833;HTU21D;51290;45.060;38.948;2023-03-01T17:08:47;3.95;55.39
64833;HTU21D;51290;45.060;38.948;2023-03-01T17:11:17;3.88;55.44
64833;HTU21D;51290;45.060;38.948;2023-03-01T17:13:43;3.83;55.49
64833;HTU21D;51290;45.060;38.948;2023-03-01T17:16:12;3.75;55.52
64833;HTU21D;51290;45.060;38.948;2023-03-01T17:18:38;3.71;55.55
64833;HTU21D;51290;45.060;38.948;2023-03-01T17:21:05;3.64;55.59
64833;HTU21D;51290;45.060;38.948;2023-03-01T17:23:32;3.58;55.62
64833;HTU21D;51290;45.060;38.948;2023-03-01T17:26:06;3.52;55.68